Clough Corners, New York
Current Conditions -  °F | °C
As of 2:53 AM on Friday 24 Oct 2014 (Local Time) from KBGM Reporting Station
Overcast Overcast  
Wind Chill: 40°   Ceiling: 900
Heat Index: 46°   Visibility: 10mi
Dew Point: 42°   Wind: 15mph
Humidity: 86%   Direction: 340°NNW
Pressure: 29.88"   Gusts: NA
Location:  42.3636°N, 75.9252°W
Report Text: KBGM 240653Z AUTO 34013KT 10SM OVC009 08/06 A2988 RMK AO2 SLP124 T00780056
Loading
Personal Weather Stations






























Interactive Weather Map
Tropical Storm Tracking
New forecast layout! Learn more

10-Day Weather Forecast

Advertisements
Track Severe Weather on mobile